createdAt,value
2023-05-20T00:00:42.241Z,99229.34
2023-05-20T00:03:08.742Z,99232.00
2023-05-20T00:05:35.148Z,99230.34
2023-05-20T00:08:04.585Z,99229.56
2023-05-20T00:10:30.976Z,99226.09
2023-05-20T00:12:57.343Z,99223.66
2023-05-20T00:15:23.729Z,99226.09
2023-05-20T00:17:50.201Z,99217.31
2023-05-20T00:20:16.565Z,99215.94
2023-05-20T00:22:42.913Z,99222.88
2023-05-20T00:25:09.699Z,99213.28
2023-05-20T00:27:36.082Z,99215.94
2023-05-20T00:30:02.512Z,99221.25
2023-05-20T00:32:29.017Z,99221.47
2023-05-20T00:34:56.384Z,99216.13
2023-05-20T00:37:22.792Z,99216.63
2023-05-20T00:39:49.144Z,99218.25
2023-05-20T00:42:21.908Z,99221.94
2023-05-20T00:44:48.497Z,99222.97
2023-05-20T00:47:15.376Z,99214.97
2023-05-20T00:49:42.018Z,99212.56
2023-05-20T00:52:08.392Z,99221.59
2023-05-20T00:54:34.766Z,99220.78
2023-05-20T00:57:03.313Z,99225.88
2023-05-20T00:59:29.727Z,99232.22
2023-05-20T01:01:56.405Z,99233.03
2023-05-20T01:04:22.820Z,99220.19
2023-05-20T01:06:49.698Z,99221.00
2023-05-20T01:09:16.079Z,99224.50
2023-05-20T01:11:44.475Z,99225.50
2023-05-20T01:14:10.936Z,99225.50
2023-05-20T01:16:37.374Z,99214.88
2023-05-20T01:19:04.052Z,99222.03
2023-05-20T01:21:30.670Z,99213.25
2023-05-20T01:23:57.055Z,99215.13
2023-05-20T01:26:27.018Z,99214.88
2023-05-20T01:28:53.564Z,99209.00
2023-05-20T01:31:21.435Z,99206.31
2023-05-20T01:33:47.832Z,99207.38
2023-05-20T01:36:14.189Z,99202.88
2023-05-20T01:38:40.784Z,99199.59
2023-05-20T01:41:07.305Z,99199.59
2023-05-20T01:43:33.659Z,99197.19
2023-05-20T01:46:02.737Z,99195.34
2023-05-20T01:48:29.115Z,99198.00
2023-05-20T01:50:55.643Z,99195.34
2023-05-20T01:53:21.997Z,99198.25
2023-05-20T01:55:48.350Z,99183.34
2023-05-20T01:58:14.718Z,99180.69
2023-05-20T02:00:41.169Z,99181.69
2023-05-20T02:03:07.783Z,99187.81
2023-05-20T02:05:34.431Z,99183.53
2023-05-20T02:08:01.320Z,99187.25
2023-05-20T02:10:27.703Z,99182.97
2023-05-20T02:12:54.096Z,99184.59
2023-05-20T02:15:20.753Z,99180.06
2023-05-20T02:17:47.249Z,99181.94
2023-05-20T02:20:13.977Z,99183.53
2023-05-20T02:22:40.423Z,99178.47
2023-05-20T02:25:07.124Z,99176.06
2023-05-20T02:27:33.505Z,99180.31
2023-05-20T02:30:00.241Z,99180.31
2023-05-20T02:32:28.328Z,99176.06
2023-05-20T02:34:55.054Z,99177.88
2023-05-20T02:37:21.537Z,99175.22
2023-05-20T02:39:47.916Z,99176.06
2023-05-20T02:42:14.280Z,99171.75
2023-05-20T02:44:41.289Z,99172.56
2023-05-20T02:47:07.657Z,99172.78
2023-05-20T02:49:34.023Z,99173.38
2023-05-20T02:52:00.384Z,99167.47
2023-05-20T02:54:26.745Z,99170.94
2023-05-20T02:56:53.113Z,99167.47
2023-05-20T02:59:21.218Z,99169.34
2023-05-20T03:01:47.628Z,99172.78
2023-05-20T03:04:14.065Z,99174.66
2023-05-20T03:06:44.337Z,99166.69
2023-05-20T03:09:11.421Z,99164.25
2023-05-20T03:11:37.788Z,99165.31
2023-05-20T03:14:04.147Z,99174.28
2023-05-20T03:16:30.598Z,99163.66
2023-05-20T03:18:57.159Z,99166.56
2023-05-20T03:21:24.101Z,99164.72
2023-05-20T03:23:50.656Z,99161.47
2023-05-20T03:26:17.031Z,99163.34
2023-05-20T03:28:43.683Z,99166.81
2023-05-20T03:31:10.785Z,99162.50
2023-05-20T03:33:37.194Z,99169.47
2023-05-20T03:36:03.679Z,99173.97
2023-05-20T03:38:30.798Z,99167.00
2023-05-20T03:40:57.204Z,99175.00
2023-05-20T03:43:24.156Z,99174.19
2023-05-20T03:45:50.559Z,99173.38
2023-05-20T03:48:16.988Z,99176.84
2023-05-20T03:50:43.364Z,99176.03
2023-05-20T03:53:09.740Z,99170.97
2023-05-20T03:55:36.315Z,99178.94
2023-05-20T03:58:03.035Z,99173.63
2023-05-20T04:00:31.408Z,99168.31
2023-05-20T04:02:58.298Z,99171.75
2023-05-20T04:05:25.153Z,99166.44
2023-05-20T04:07:51.525Z,99177.09
2023-05-20T04:10:18.748Z,99170.72
2023-05-20T04:12:45.135Z,99166.44
2023-05-20T04:15:11.793Z,99166.44
2023-05-20T04:17:40.320Z,99168.50
2023-05-20T04:20:07.550Z,99165.84
2023-05-20T04:22:34.246Z,99160.31
2023-05-20T04:25:01.068Z,99162.38
2023-05-20T04:27:27.446Z,99159.72
2023-05-20T04:29:54.996Z,99163.19
2023-05-20T04:32:21.379Z,99156.28
2023-05-20T04:34:48.679Z,99155.22
2023-05-20T04:37:15.487Z,99151.75
2023-05-20T04:39:43.668Z,99152.81
2023-05-20T04:42:10.089Z,99153.59
2023-05-20T04:44:36.463Z,99159.72
2023-05-20T04:47:02.829Z,99158.94
2023-05-20T04:49:29.879Z,99157.88
2023-05-20T04:51:56.251Z,99149.91
2023-05-20T04:54:22.656Z,99146.22
2023-05-20T04:56:49.269Z,99145.19
2023-05-20T04:59:15.824Z,99150.84
2023-05-20T05:01:42.218Z,99154.66
2023-05-20T05:04:08.634Z,99153.94
2023-05-20T05:06:35.052Z,99156.25
2023-05-20T05:09:01.403Z,99152.44
2023-05-20T05:11:27.764Z,99149.91
2023-05-20T05:13:54.757Z,99153.13
2023-05-20T05:16:21.250Z,99151.06
2023-05-20T05:18:47.623Z,99143.88
2023-05-20T05:21:14.051Z,99151.63
2023-05-20T05:23:42.426Z,99142.72
2023-05-20T05:26:08.823Z,99140.63
2023-05-20T05:28:35.257Z,99134.41
2023-05-20T05:31:02.312Z,99149.16
2023-05-20T05:33:28.739Z,99151.00
2023-05-20T05:35:56.736Z,99148.94
2023-05-20T05:38:23.101Z,99156.94
2023-05-20T05:40:49.454Z,99151.59
2023-05-20T05:43:16.224Z,99152.66
2023-05-20T05:45:43.316Z,99154.47
2023-05-20T05:48:09.743Z,99150.00
2023-05-20T05:50:36.278Z,99152.41
2023-05-20T05:53:02.654Z,99145.00
2023-05-20T05:55:29.042Z,99139.66
2023-05-20T05:57:55.471Z,99150.09
2023-05-20T06:00:22.099Z,99142.94
2023-05-20T06:02:48.665Z,99140.03
2023-05-20T06:05:15.379Z,99146.50
2023-05-20T06:07:41.757Z,99138.59
2023-05-20T06:10:08.348Z,99152.38
2023-05-20T06:12:34.730Z,99150.38
2023-05-20T06:15:01.134Z,99155.00
2023-05-20T06:17:27.538Z,99147.34
2023-05-20T06:19:53.955Z,99146.88
2023-05-20T06:22:20.734Z,99153.34
2023-05-20T06:24:47.105Z,99157.72
2023-05-20T06:27:13.472Z,99150.38
2023-05-20T06:29:41.338Z,99160.94
2023-05-20T06:32:08.809Z,99164.75
2023-05-20T06:34:35.263Z,99155.56
2023-05-20T06:37:02.322Z,99157.53
2023-05-20T06:39:28.693Z,99145.91
2023-05-20T06:41:55.120Z,99150.03
2023-05-20T06:44:21.485Z,99149.63
2023-05-20T06:46:47.966Z,99149.41
2023-05-20T06:49:14.425Z,99150.84
2023-05-20T06:51:41.186Z,99144.28
2023-05-20T06:54:07.536Z,99146.28
2023-05-20T06:56:33.897Z,99146.69
2023-05-20T06:59:00.625Z,99139.22
2023-05-20T07:01:27.028Z,99137.69
2023-05-20T07:03:53.486Z,99138.75
2023-05-20T07:06:19.900Z,99137.91
2023-05-20T07:08:46.267Z,99131.59
2023-05-20T07:11:12.686Z,99122.66
2023-05-20T07:13:39.080Z,99125.19
2023-05-20T07:16:05.883Z,99132.28
2023-05-20T07:18:32.315Z,99128.81
2023-05-20T07:20:58.694Z,99116.41
2023-05-20T07:23:25.064Z,99110.09
2023-05-20T07:25:52.685Z,99122.19
2023-05-20T07:28:20.398Z,99121.09
2023-05-20T07:30:50.066Z,99113.97
2023-05-20T07:33:17.543Z,99120.44
2023-05-20T07:35:44.206Z,99119.38
2023-05-20T07:38:11.333Z,99106.53
2023-05-20T07:40:40.478Z,99108.72
2023-05-20T07:43:07.717Z,99108.75
2023-05-20T07:45:37.430Z,99094.28
2023-05-20T07:48:04.376Z,99099.09
2023-05-20T07:50:30.760Z,99101.63
2023-05-20T07:52:57.215Z,99108.56
2023-05-20T07:55:23.594Z,99109.53
2023-05-20T07:57:50.017Z,99104.41
2023-05-20T08:00:16.375Z,99106.88
2023-05-20T08:02:43.128Z,99102.78
2023-05-20T08:05:09.556Z,99107.75
2023-05-20T08:07:36.062Z,99100.09
2023-05-20T08:10:02.469Z,99099.53
2023-05-20T08:12:28.819Z,99106.38
2023-05-20T08:14:55.207Z,99107.41
2023-05-20T08:17:21.639Z,99097.44
2023-05-20T08:19:48.036Z,99103.53
2023-05-20T08:22:14.433Z,99100.03
2023-05-20T08:24:41.172Z,99096.00
2023-05-20T08:27:07.611Z,99096.31
2023-05-20T08:29:34.056Z,99092.13
2023-05-20T08:32:00.444Z,99076.50
2023-05-20T08:34:26.796Z,99090.13
2023-05-20T08:36:53.424Z,99093.34
2023-05-20T08:39:19.775Z,99080.84
2023-05-20T08:41:46.852Z,99078.50
2023-05-20T08:44:13.207Z,99079.91
2023-05-20T08:46:39.660Z,99074.66
2023-05-20T08:49:06.259Z,99078.59
2023-05-20T08:51:32.674Z,99071.00
2023-05-20T08:54:02.620Z,99074.22
2023-05-20T08:56:30.990Z,99065.44
2023-05-20T08:58:57.622Z,99077.47
2023-05-20T09:01:24.947Z,99075.34
2023-05-20T09:03:51.544Z,99077.09
2023-05-20T09:06:20.952Z,99073.19
2023-05-20T09:08:51.337Z,99076.19
2023-05-20T09:11:17.729Z,99067.72
2023-05-20T09:13:44.125Z,99084.59
2023-05-20T09:16:10.950Z,99094.75
2023-05-20T09:18:40.811Z,99085.22
2023-05-20T09:21:07.244Z,99091.59
2023-05-20T09:23:33.607Z,99086.53
2023-05-20T09:26:00.933Z,99084.91
2023-05-20T09:28:27.546Z,99084.91
2023-05-20T09:30:59.902Z,99086.19
2023-05-20T09:33:32.454Z,99080.88
2023-05-20T09:36:04.863Z,99072.63
2023-05-20T09:38:35.436Z,99073.41
2023-05-20T09:41:04.445Z,99075.28
2023-05-20T09:43:30.802Z,99076.34
2023-05-20T09:45:59.527Z,99079.25
2023-05-20T09:48:25.929Z,99064.06
2023-05-20T09:50:52.290Z,99067.53
2023-05-20T09:53:18.644Z,99064.88
2023-05-20T09:55:45.014Z,99075.53
2023-05-20T09:58:11.568Z,99068.81
2023-05-20T10:00:37.942Z,99080.31
2023-05-20T10:03:04.596Z,99086.44
2023-05-20T10:05:33.391Z,99071.00
2023-05-20T10:07:59.896Z,99074.47
2023-05-20T10:10:26.313Z,99068.09
2023-05-20T10:12:59.711Z,99068.66
2023-05-20T10:15:26.312Z,99068.91
2023-05-20T10:18:12.030Z,99073.19
2023-05-20T10:20:48.061Z,99080.38
2023-05-20T10:23:21.193Z,99085.72
2023-05-20T10:25:50.838Z,99079.59
2023-05-20T10:28:17.393Z,99086.53
2023-05-20T10:30:49.636Z,99079.31
2023-05-20T10:33:19.378Z,99077.94
2023-05-20T10:35:50.600Z,99077.47
2023-05-20T10:38:17.002Z,99083.06
2023-05-20T10:40:43.375Z,99084.06
2023-05-20T10:43:11.366Z,99087.56
2023-05-20T10:45:47.303Z,99077.94
2023-05-20T10:48:20.067Z,99071.59
2023-05-20T10:50:46.479Z,99064.41
2023-05-20T10:53:21.696Z,99064.41
2023-05-20T10:55:56.084Z,99064.13
2023-05-20T10:58:23.407Z,99056.63
2023-05-20T11:00:50.907Z,99066.81
2023-05-20T11:03:18.416Z,99062.28
2023-05-20T11:05:45.157Z,99056.41
2023-05-20T11:08:24.593Z,99060.34
2023-05-20T11:10:55.902Z,99048.06
2023-05-20T11:13:22.352Z,99047.28
2023-05-20T11:15:48.967Z,99037.41
2023-05-20T11:18:17.862Z,99036.63
2023-05-20T11:20:46.228Z,99035.22
2023-05-20T11:23:13.868Z,99035.22
2023-05-20T11:25:40.258Z,99035.47
2023-05-20T11:28:12.595Z,99025.88
2023-05-20T11:30:38.964Z,99030.63
2023-05-20T11:33:05.450Z,99024.50
2023-05-20T11:35:32.296Z,99022.91
2023-05-20T11:38:03.288Z,99022.91
2023-05-20T11:40:38.819Z,99028.22
2023-05-20T11:43:13.542Z,99021.28
2023-05-20T11:45:40.785Z,99023.94
2023-05-20T11:48:11.396Z,99023.94
2023-05-20T11:50:41.763Z,99019.16
2023-05-20T11:53:08.878Z,99001.63
2023-05-20T11:55:35.465Z,99005.69
2023-05-20T11:58:02.158Z,98999.03
2023-05-20T12:00:31.348Z,98984.44
2023-05-20T12:03:02.863Z,98992.16
2023-05-20T12:05:29.318Z,99004.44
2023-05-20T12:07:56.531Z,98983.69
2023-05-20T12:10:22.968Z,99001.84
2023-05-20T12:12:49.349Z,98977.78
2023-05-20T12:15:16.029Z,98977.84
2023-05-20T12:17:49.104Z,98975.50
2023-05-20T12:20:16.819Z,98980.56
2023-05-20T12:22:43.990Z,98984.03
2023-05-20T12:25:14.720Z,98977.91
2023-05-20T12:27:41.497Z,98989.38
2023-05-20T12:30:08.477Z,98981.13
2023-05-20T12:32:34.915Z,98978.22
2023-05-20T12:35:01.307Z,98979.28
2023-05-20T12:37:27.722Z,98969.97
2023-05-20T12:39:54.100Z,98961.16
2023-05-20T12:42:20.522Z,98957.47
2023-05-20T12:44:47.079Z,98974.50
2023-05-20T12:47:13.524Z,98967.00
2023-05-20T12:49:39.917Z,98965.47
2023-05-20T12:52:11.830Z,98964.34
2023-05-20T12:54:45.671Z,98966.22
2023-05-20T12:57:12.140Z,98958.44
2023-05-20T12:59:38.520Z,98950.97
2023-05-20T13:02:04.938Z,98958.94
2023-05-20T13:04:31.864Z,98958.94
2023-05-20T13:06:58.306Z,98952.78
2023-05-20T13:09:24.729Z,98955.44
2023-05-20T13:11:51.113Z,98949.56
2023-05-20T13:14:17.573Z,98951.19
2023-05-20T13:16:44.150Z,98949.03
2023-05-20T13:19:10.733Z,98948.78
2023-05-20T13:21:37.231Z,98959.44
2023-05-20T13:24:04.263Z,98942.63
2023-05-20T13:26:31.327Z,98936.44
2023-05-20T13:28:57.678Z,98948.78
2023-05-20T13:31:24.113Z,98938.13
2023-05-20T13:33:50.500Z,98934.38
2023-05-20T13:36:16.921Z,98936.00
2023-05-20T13:38:43.279Z,98931.47
2023-05-20T13:41:09.653Z,98935.19
2023-05-20T13:43:36.142Z,98929.84
2023-05-20T13:46:02.779Z,98928.78
2023-05-20T13:48:29.450Z,98925.09
2023-05-20T13:50:55.823Z,98923.22
2023-05-20T13:53:22.461Z,98920.00
2023-05-20T13:55:48.829Z,98910.41
2023-05-20T13:58:15.258Z,98912.00
2023-05-20T14:00:41.616Z,98916.78
2023-05-20T14:03:10.460Z,98916.22
2023-05-20T14:05:36.891Z,98918.06
2023-05-20T14:08:03.332Z,98911.94
2023-05-20T14:10:29.711Z,98906.88
2023-05-20T14:12:57.422Z,98903.41
2023-05-20T14:15:23.804Z,98903.66
2023-05-20T14:17:50.224Z,98909.00
2023-05-20T14:20:16.592Z,98914.56
2023-05-20T14:22:42.978Z,98909.47
2023-05-20T14:25:09.406Z,98903.34
2023-05-20T14:27:36.147Z,98912.16
2023-05-20T14:30:02.500Z,98909.97
2023-05-20T14:32:28.890Z,98904.63
2023-05-20T14:34:55.271Z,98893.16
2023-05-20T14:37:22.815Z,98894.22
2023-05-20T14:39:49.241Z,98895.84
2023-05-20T14:42:15.620Z,98901.44
2023-05-20T14:44:41.994Z,98899.81
2023-05-20T14:47:08.421Z,98897.16
2023-05-20T14:49:36.531Z,98896.31
2023-05-20T14:52:02.923Z,98899.00
2023-05-20T14:54:29.324Z,98898.19
2023-05-20T14:56:55.853Z,98892.84
2023-05-20T14:59:22.252Z,98904.31
2023-05-20T15:01:48.749Z,98908.03
2023-05-20T15:04:15.469Z,98899.25
2023-05-20T15:06:41.864Z,98897.66
2023-05-20T15:09:08.251Z,98906.44
2023-05-20T15:11:34.624Z,98890.72
2023-05-20T15:14:01.037Z,98899.72
2023-05-20T15:16:27.443Z,98893.38
2023-05-20T15:18:53.883Z,98890.13
2023-05-20T15:21:21.352Z,98893.38
2023-05-20T15:23:47.891Z,98896.53
2023-05-20T15:26:14.239Z,98897.59
2023-05-20T15:28:40.843Z,98890.94
2023-05-20T15:31:07.202Z,98896.78
2023-05-20T15:33:33.713Z,98892.75
2023-05-20T15:36:00.152Z,98886.59
2023-05-20T15:38:26.771Z,98878.88
2023-05-20T15:40:53.118Z,98873.53
2023-05-20T15:43:19.509Z,98871.94
2023-05-20T15:45:46.638Z,98865.75
2023-05-20T15:48:13.084Z,98863.09
2023-05-20T15:50:39.463Z,98869.72
2023-05-20T15:53:06.013Z,98879.31
2023-05-20T15:55:32.462Z,98876.13
2023-05-20T15:57:58.834Z,98869.72
2023-05-20T16:00:25.217Z,98870.00
2023-05-20T16:02:51.783Z,98872.88
2023-05-20T16:05:18.210Z,98872.06
2023-05-20T16:07:45.943Z,98870.47
2023-05-20T16:10:12.352Z,98872.34
2023-05-20T16:12:38.792Z,98865.41
2023-05-20T16:15:05.349Z,98861.91
2023-05-20T16:17:31.974Z,98862.97
2023-05-20T16:19:58.366Z,98860.31
2023-05-20T16:22:24.719Z,98862.16
2023-05-20T16:24:51.151Z,98854.16
2023-05-20T16:27:17.508Z,98849.66
2023-05-20T16:29:45.097Z,98844.31
2023-05-20T16:32:11.774Z,98844.88
2023-05-20T16:34:38.466Z,98852.09
2023-05-20T16:37:04.840Z,98848.34
2023-05-20T16:39:31.423Z,98842.22
2023-05-20T16:41:57.821Z,98842.22
2023-05-20T16:44:24.174Z,98835.25
2023-05-20T16:46:53.350Z,98838.75
2023-05-20T16:49:21.128Z,98839.78
2023-05-20T16:51:47.593Z,98833.44
2023-05-20T16:54:13.992Z,98830.19
2023-05-20T16:56:40.565Z,98833.66
2023-05-20T16:59:07.266Z,98829.13
2023-05-20T17:01:33.759Z,98831.50
2023-05-20T17:04:00.491Z,98821.66
2023-05-20T17:06:26.998Z,98834.19
2023-05-20T17:08:53.416Z,98835.78
2023-05-20T17:11:19.777Z,98842.97
2023-05-20T17:13:46.218Z,98841.34
2023-05-20T17:16:12.585Z,98845.88
2023-05-20T17:18:38.941Z,98837.88
2023-05-20T17:21:05.665Z,98835.47
2023-05-20T17:23:32.045Z,98830.94
2023-05-20T17:25:58.538Z,98825.88
2023-05-20T17:28:24.986Z,98829.59
2023-05-20T17:30:51.513Z,98836.53
2023-05-20T17:33:17.946Z,98834.66
2023-05-20T17:35:44.338Z,98823.16
2023-05-20T17:38:10.880Z,98827.97
2023-05-20T17:40:37.577Z,98827.16
2023-05-20T17:43:04.208Z,98838.06
2023-05-20T17:45:30.658Z,98837.81
2023-05-20T17:47:57.158Z,98839.13
2023-05-20T17:50:23.680Z,98845.25
2023-05-20T17:52:50.064Z,98841.00
2023-05-20T17:55:18.231Z,98834.03
2023-05-20T17:57:44.612Z,98838.56
2023-05-20T18:00:13.018Z,98838.56
2023-05-20T18:02:39.508Z,98844.94
2023-05-20T18:05:06.304Z,98849.72
2023-05-20T18:07:33.337Z,98848.09
2023-05-20T18:09:59.695Z,98841.97
2023-05-20T18:12:26.067Z,98839.56
2023-05-20T18:14:52.420Z,98833.44
2023-05-20T18:17:18.831Z,98836.34
2023-05-20T18:19:45.367Z,98837.16
2023-05-20T18:22:11.824Z,98826.50
2023-05-20T18:24:38.186Z,98837.16
2023-05-20T18:27:04.610Z,98844.88
2023-05-20T18:29:31.010Z,98840.66
2023-05-20T18:31:57.463Z,98834.28
2023-05-20T18:34:23.896Z,98838.56
2023-05-20T18:36:50.499Z,98837.53
2023-05-20T18:39:20.435Z,98840.72
2023-05-20T18:41:49.913Z,98841.53
2023-05-20T18:44:16.639Z,98835.41
2023-05-20T18:46:43.001Z,98837.81
2023-05-20T18:49:10.604Z,98834.59
2023-05-20T18:51:37.567Z,98837.00
2023-05-20T18:54:04.031Z,98832.75
2023-05-20T18:56:32.294Z,98831.94
2023-05-20T18:58:59.019Z,98827.41
2023-05-20T19:01:25.413Z,98833.53
2023-05-20T19:03:51.812Z,98835.41
2023-05-20T19:06:18.192Z,98832.19
2023-05-20T19:08:44.582Z,98831.63
2023-05-20T19:11:11.351Z,98834.78
2023-05-20T19:13:37.720Z,98833.75
2023-05-20T19:16:04.126Z,98838.00
2023-05-20T19:18:30.490Z,98828.09
2023-05-20T19:20:56.915Z,98833.44
2023-05-20T19:23:23.286Z,98832.84
2023-05-20T19:25:49.651Z,98824.00
2023-05-20T19:28:16.023Z,98836.81
2023-05-20T19:30:42.512Z,98835.22
2023-05-20T19:33:08.960Z,98841.56
2023-05-20T19:35:35.651Z,98841.56
2023-05-20T19:38:04.740Z,98835.16
2023-05-20T19:40:31.166Z,98837.31
2023-05-20T19:42:57.533Z,98834.91
2023-05-20T19:45:23.950Z,98838.69
2023-05-20T19:47:50.496Z,98836.56
2023-05-20T19:50:16.887Z,98845.13
2023-05-20T19:52:43.246Z,98842.22
2023-05-20T19:55:10.380Z,98839.00
2023-05-20T19:57:36.945Z,98836.63
2023-05-20T20:00:03.852Z,98837.22
2023-05-20T20:02:30.830Z,98835.03
2023-05-20T20:04:57.219Z,98833.44
2023-05-20T20:07:23.915Z,98825.69
2023-05-20T20:09:51.807Z,98823.25
2023-05-20T20:12:18.186Z,98828.09
2023-05-20T20:14:44.545Z,98821.16
2023-05-20T20:17:15.489Z,98823.03
2023-05-20T20:19:42.290Z,98820.38
2023-05-20T20:22:08.673Z,98831.50
2023-05-20T20:24:35.042Z,98812.22
2023-05-20T20:27:02.024Z,98824.56
2023-05-20T20:29:28.367Z,98822.13
2023-05-20T20:31:54.758Z,98819.97
2023-05-20T20:34:21.929Z,98823.69
2023-05-20T20:36:48.296Z,98819.97
2023-05-20T20:39:19.001Z,98809.56
2023-05-20T20:41:45.850Z,98807.16
2023-05-20T20:44:21.030Z,98809.00
2023-05-20T20:46:50.695Z,98811.13
2023-05-20T20:49:20.683Z,98813.59
2023-05-20T20:51:47.069Z,98825.06
2023-05-20T20:54:14.482Z,98818.13
2023-05-20T20:56:41.433Z,98816.53
2023-05-20T20:59:08.781Z,98814.09
2023-05-20T21:01:37.985Z,98813.59
2023-05-20T21:04:04.772Z,98812.28
2023-05-20T21:06:31.201Z,98808.13
2023-05-20T21:08:58.136Z,98802.06
2023-05-20T21:11:26.117Z,98798.38
2023-05-20T21:13:53.066Z,98798.38
2023-05-20T21:16:19.532Z,98798.38
2023-05-20T21:18:45.966Z,98797.06
2023-05-20T21:21:14.332Z,98795.44
2023-05-20T21:23:40.944Z,98790.94
2023-05-20T21:26:07.422Z,98794.41
2023-05-20T21:28:33.781Z,98786.16
2023-05-20T21:31:00.263Z,98788.59
2023-05-20T21:33:26.631Z,98788.59
2023-05-20T21:35:53.018Z,98783.50
2023-05-20T21:38:19.379Z,98788.84
2023-05-20T21:40:45.769Z,98789.91
2023-05-20T21:43:12.127Z,98777.94
2023-05-20T21:45:38.722Z,98781.69
2023-05-20T21:48:05.406Z,98782.19
2023-05-20T21:50:31.816Z,98777.13
2023-05-20T21:52:58.174Z,98778.19
2023-05-20T21:55:24.596Z,98773.66
2023-05-20T21:57:51.158Z,98768.34
2023-05-20T22:00:19.112Z,98775.53
2023-05-20T22:02:46.003Z,98766.69
2023-05-20T22:05:12.501Z,98768.06
2023-05-20T22:07:41.684Z,98760.28
2023-05-20T22:10:10.736Z,98766.69
2023-05-20T22:12:38.028Z,98761.09
2023-05-20T22:15:04.843Z,98760.50
2023-05-20T22:17:34.046Z,98752.53
2023-05-20T22:20:01.706Z,98751.72
2023-05-20T22:22:28.231Z,98752.22
2023-05-20T22:24:54.581Z,98740.53
2023-05-20T22:27:21.355Z,98740.47
2023-05-20T22:29:47.700Z,98740.97
2023-05-20T22:32:14.118Z,98732.41
2023-05-20T22:34:40.583Z,98734.03
2023-05-20T22:37:07.064Z,98729.50
2023-05-20T22:39:33.538Z,98728.44
2023-05-20T22:41:59.913Z,98719.91
2023-05-20T22:44:26.268Z,98722.81
2023-05-20T22:46:52.651Z,98714.81
2023-05-20T22:49:19.114Z,98716.44
2023-05-20T22:51:45.511Z,98708.97
2023-05-20T22:54:11.886Z,98706.03
2023-05-20T22:56:38.239Z,98701.22
2023-05-20T22:59:04.599Z,98701.22
2023-05-20T23:01:31.037Z,98704.13
2023-05-20T23:03:57.526Z,98703.31
2023-05-20T23:06:23.897Z,98693.72
2023-05-20T23:08:50.281Z,98696.66
2023-05-20T23:11:16.641Z,98699.31
2023-05-20T23:13:43.031Z,98688.09
2023-05-20T23:16:10.150Z,98682.75
2023-05-20T23:18:36.688Z,98683.56
2023-05-20T23:21:03.059Z,98682.75
2023-05-20T23:23:31.567Z,98670.50
2023-05-20T23:25:58.740Z,98671.31
2023-05-20T23:28:25.391Z,98668.13
2023-05-20T23:30:51.778Z,98678.75
2023-05-20T23:33:24.032Z,98681.44
2023-05-20T23:35:51.349Z,98677.94
2023-05-20T23:38:18.134Z,98677.94
2023-05-20T23:40:44.527Z,98682.44
2023-05-20T23:43:10.908Z,98671.00
2023-05-20T23:45:37.407Z,98662.47
2023-05-20T23:48:04.005Z,98665.13
2023-05-20T23:50:32.474Z,98658.22
2023-05-20T23:52:58.902Z,98654.72
2023-05-20T23:55:25.530Z,98655.56
2023-05-20T23:57:51.925Z,98650.47
